Time;durP1;ratioP1;P1;durP2;ratioP2;P2;SDS_P1;SDS_P2;PMS_P1;PMS_P2;Temp;Humidity;BMP_temperature;BMP_pressure;BME280_temperature;BME280_humidity;BME280_pressure;Samples;Min_cycle;Max_cycle;Signal;HPM_P1;HPM_P2
2021/05/26 00:02:25;;;;;;;2.80;1.50;;;;;;;;;;4981382;28;20658;-54
2021/05/26 00:04:50;;;;;;;2.20;1.00;;;;;;;;;;4963498;28;20196;-53
2021/05/26 00:07:17;;;;;;;2.60;1.50;;;;;;;;;;4971555;28;20216;-53
2021/05/26 00:09:43;;;;;;;3.40;1.47;;;;;;;;;;4978057;28;20716;-54
2021/05/26 00:12:10;;;;;;;1.97;1.53;;;;;;;;;;4966040;28;20185;-52
2021/05/26 00:14:35;;;;;;;4.17;1.60;;;;;;;;;;4979215;28;20207;-54
2021/05/26 00:17:02;;;;;;;1.40;1.20;;;;;;;;;;4960320;28;20566;-54
2021/05/26 00:19:27;;;;;;;3.50;1.33;;;;;;;;;;4982979;28;20199;-55
2021/05/26 00:21:53;;;;;;;3.57;1.70;;;;;;;;;;4967993;28;20192;-55
2021/05/26 00:24:18;;;;;;;2.47;1.40;;;;;;;;;;4981694;28;20189;-55
2021/05/26 00:26:44;;;;;;;1.83;1.57;;;;;;;;;;4963295;28;20201;-54
2021/05/26 00:29:09;;;;;;;3.30;2.00;;;;;;;;;;4969412;28;20210;-54
2021/05/26 00:31:35;;;;;;;4.17;2.03;;;;;;;;;;4968206;28;20613;-54
2021/05/26 00:34:00;;;;;;;2.97;1.90;;;;;;;;;;4980284;28;20204;-52
2021/05/26 00:36:25;;;;;;;3.30;1.80;;;;;;;;;;4963946;28;20260;-53
2021/05/26 00:38:53;;;;;;;3.90;2.10;;;;;;;;;;4969290;28;20203;-53
2021/05/26 00:41:18;;;;;;;3.97;1.90;;;;;;;;;;4964240;28;20220;-53
2021/05/26 00:43:44;;;;;;;2.90;1.37;;;;;;;;;;4966939;28;20185;-54
2021/05/26 00:46:11;;;;;;;1.80;1.50;;;;;;;;;;4969786;28;20283;-53
2021/05/26 00:48:37;;;;;;;2.20;1.80;;;;;;;;;;4962052;28;20196;-55
2021/05/26 00:51:02;;;;;;;4.27;2.17;;;;;;;;;;4964523;28;20194;-55
2021/05/26 00:53:30;;;;;;;3.77;1.90;;;;;;;;;;4962654;28;20760;-54
2021/05/26 00:55:55;;;;;;;2.47;2.03;;;;;;;;;;4975791;28;20562;-54
2021/05/26 00:58:21;;;;;;;2.93;1.50;;;;;;;;;;4967154;28;20199;-55
2021/05/26 01:00:46;;;;;;;3.50;1.80;;;;;;;;;;4966718;28;20185;-53
2021/05/26 01:03:12;;;;;;;2.97;1.87;;;;;;;;;;4965099;28;20177;-55
2021/05/26 01:05:38;;;;;;;2.37;2.10;;;;;;;;;;4976228;28;20193;-54
2021/05/26 01:08:04;;;;;;;1.87;1.40;;;;;;;;;;4967473;28;20723;-53
2021/05/26 01:10:31;;;;;;;3.97;1.80;;;;;;;;;;4967602;28;20218;-53
2021/05/26 01:12:57;;;;;;;1.33;1.23;;;;;;;;;;4964990;28;20656;-53
2021/05/26 01:15:23;;;;;;;3.57;2.30;;;;;;;;;;4968492;28;20216;-55
2021/05/26 01:17:48;;;;;;;2.50;1.90;;;;;;;;;;4964884;28;20272;-53
2021/05/26 01:20:21;;;;;;;1.93;1.70;;;;;;;;;;4960253;28;20620;-54
2021/05/26 01:22:47;;;;;;;2.20;1.60;;;;;;;;;;4963484;28;20566;-52
2021/05/26 01:25:12;;;;;;;2.73;1.80;;;;;;;;;;4967112;28;20200;-53
2021/05/26 01:27:38;;;;;;;3.40;2.40;;;;;;;;;;4966524;28;20214;-55
2021/05/26 01:30:06;;;;;;;2.50;1.97;;;;;;;;;;4966001;28;20199;-54
2021/05/26 01:32:31;;;;;;;1.80;1.70;;;;;;;;;;4964615;28;20250;-54
2021/05/26 01:34:57;;;;;;;3.53;2.20;;;;;;;;;;4966661;28;20645;-53
2021/05/26 01:37:22;;;;;;;3.90;2.43;;;;;;;;;;4967284;28;20212;-54
2021/05/26 01:39:50;;;;;;;3.47;2.17;;;;;;;;;;4961753;28;20565;-52
2021/05/26 01:42:42;;;;;;;4.30;2.47;;;;;;;;;;4963567;28;20672;-53
2021/05/26 01:45:10;;;;;;;3.70;2.60;;;;;;;;;;4968057;28;20705;-54
2021/05/26 01:47:36;;;;;;;3.47;2.53;;;;;;;;;;4966416;28;20215;-53
2021/05/26 01:50:03;;;;;;;5.77;2.60;;;;;;;;;;4965615;28;20189;-53
2021/05/26 01:52:28;;;;;;;3.00;2.47;;;;;;;;;;4964726;28;20181;-52
2021/05/26 01:54:53;;;;;;;4.33;2.73;;;;;;;;;;4960749;28;20205;-54
2021/05/26 01:57:21;;;;;;;2.53;2.33;;;;;;;;;;4968518;28;20208;-53
2021/05/26 01:59:46;;;;;;;4.40;2.70;;;;;;;;;;4966779;28;20189;-52
2021/05/26 02:02:11;;;;;;;4.03;3.13;;;;;;;;;;4962514;28;20712;-54
2021/05/26 02:04:37;;;;;;;2.37;2.00;;;;;;;;;;4961500;28;20676;-54
2021/05/26 02:07:08;;;;;;;4.00;2.93;;;;;;;;;;4965487;28;20709;-54
2021/05/26 02:09:37;;;;;;;4.50;2.30;;;;;;;;;;4979613;28;20570;-54
2021/05/26 02:12:21;;;;;;;2.00;1.80;;;;;;;;;;4957943;28;20189;-55
2021/05/26 02:14:47;;;;;;;4.80;2.67;;;;;;;;;;4966569;28;20251;-53
2021/05/26 02:17:13;;;;;;;3.83;3.00;;;;;;;;;;4966941;28;20716;-54
2021/05/26 02:19:38;;;;;;;4.83;2.77;;;;;;;;;;4968822;28;20200;-53
2021/05/26 02:22:03;;;;;;;5.27;2.77;;;;;;;;;;4963585;28;20189;-54
2021/05/26 02:24:28;;;;;;;8.27;3.67;;;;;;;;;;4964673;28;20204;-54
2021/05/26 02:26:54;;;;;;;3.10;2.37;;;;;;;;;;4975584;28;20205;-56
2021/05/26 02:29:19;;;;;;;3.40;2.60;;;;;;;;;;4958174;28;20196;-54
2021/05/26 02:31:45;;;;;;;4.47;3.50;;;;;;;;;;4965650;28;20567;-52
2021/05/26 02:34:10;;;;;;;4.00;3.23;;;;;;;;;;4967534;28;20811;-53
2021/05/26 02:36:35;;;;;;;5.10;3.00;;;;;;;;;;4962689;28;20225;-56
2021/05/26 02:39:01;;;;;;;6.53;2.87;;;;;;;;;;4963174;28;20184;-53
2021/05/26 02:41:26;;;;;;;4.87;2.80;;;;;;;;;;4966815;28;20779;-55
2021/05/26 02:43:51;;;;;;;7.03;2.77;;;;;;;;;;4975381;28;20184;-54
2021/05/26 02:46:17;;;;;;;3.77;3.00;;;;;;;;;;4985320;28;20217;-54
2021/05/26 02:48:42;;;;;;;2.13;1.93;;;;;;;;;;4992051;28;20181;-50
2021/05/26 02:51:07;;;;;;;3.40;2.77;;;;;;;;;;4990683;28;20177;-51
2021/05/26 02:53:32;;;;;;;3.57;3.07;;;;;;;;;;4991068;28;20228;-50
2021/05/26 02:55:58;;;;;;;3.70;2.70;;;;;;;;;;4991139;28;20212;-51
2021/05/26 02:58:23;;;;;;;3.47;2.43;;;;;;;;;;4987761;28;20189;-50
2021/05/26 03:00:49;;;;;;;4.57;2.20;;;;;;;;;;4990537;28;20216;-53
2021/05/26 03:03:14;;;;;;;4.30;3.03;;;;;;;;;;5004074;28;20253;-52
2021/05/26 03:05:42;;;;;;;3.17;2.80;;;;;;;;;;4987331;28;20235;-51
2021/05/26 03:08:07;;;;;;;6.10;3.00;;;;;;;;;;4991282;28;20205;-53
2021/05/26 03:10:33;;;;;;;4.23;3.33;;;;;;;;;;4994946;28;20192;-52
2021/05/26 03:12:58;;;;;;;4.57;2.80;;;;;;;;;;4997630;28;20193;-52
2021/05/26 03:15:23;;;;;;;3.47;3.10;;;;;;;;;;4992172;28;20228;-52
2021/05/26 03:17:51;;;;;;;6.83;3.40;;;;;;;;;;5003048;28;20166;-53
2021/05/26 03:20:19;;;;;;;5.00;3.20;;;;;;;;;;4983130;28;20846;-54
2021/05/26 03:22:44;;;;;;;6.37;3.23;;;;;;;;;;4970163;28;20232;-56
2021/05/26 03:25:12;;;;;;;6.20;2.87;;;;;;;;;;4965646;28;20228;-56
2021/05/26 03:27:39;;;;;;;4.03;3.20;;;;;;;;;;4969147;28;20204;-54
2021/05/26 03:30:10;;;;;;;6.03;2.37;;;;;;;;;;4966229;28;20193;-55
2021/05/26 03:32:38;;;;;;;4.20;3.20;;;;;;;;;;4970496;28;20299;-55
2021/05/26 03:35:05;;;;;;;5.77;3.27;;;;;;;;;;4965967;28;20220;-56
2021/05/26 03:37:30;;;;;;;4.77;3.13;;;;;;;;;;4968445;28;20743;-56
2021/05/26 03:39:56;;;;;;;4.87;3.07;;;;;;;;;;4968339;28;20189;-55
2021/05/26 03:42:21;;;;;;;3.47;2.87;;;;;;;;;;4964591;28;20362;-54
2021/05/26 03:44:46;;;;;;;3.77;2.97;;;;;;;;;;4965906;28;20754;-54
2021/05/26 03:47:12;;;;;;;4.57;3.07;;;;;;;;;;4969037;28;20640;-54
2021/05/26 03:49:37;;;;;;;5.23;2.87;;;;;;;;;;4968020;28;20196;-53
2021/05/26 03:52:06;;;;;;;5.83;2.87;;;;;;;;;;4966266;28;20190;-54
2021/05/26 03:54:31;;;;;;;3.80;2.60;;;;;;;;;;4966051;28;20209;-55
2021/05/26 03:56:57;;;;;;;5.17;2.90;;;;;;;;;;4970532;28;20213;-54
2021/05/26 03:59:22;;;;;;;3.87;2.60;;;;;;;;;;4968740;28;20192;-54
2021/05/26 04:01:47;;;;;;;3.80;2.80;;;;;;;;;;4984463;28;20193;-54
2021/05/26 04:04:15;;;;;;;5.40;3.30;;;;;;;;;;4964708;28;20192;-54
2021/05/26 04:06:40;;;;;;;4.83;2.60;;;;;;;;;;4966319;28;20701;-54
2021/05/26 04:09:06;;;;;;;4.23;2.67;;;;;;;;;;4966703;28;20189;-54
2021/05/26 04:11:36;;;;;;;7.23;3.03;;;;;;;;;;4965742;28;20212;-55
2021/05/26 04:14:04;;;;;;;5.87;2.43;;;;;;;;;;4963087;28;20588;-54
2021/05/26 04:16:29;;;;;;;4.00;2.33;;;;;;;;;;4965864;28;20227;-54
2021/05/26 04:18:54;;;;;;;5.77;2.57;;;;;;;;;;4967975;28;20192;-55
2021/05/26 04:21:20;;;;;;;6.60;2.80;;;;;;;;;;4964449;28;20225;-54
2021/05/26 04:23:45;;;;;;;4.70;2.50;;;;;;;;;;4965217;28;20235;-53
2021/05/26 04:26:10;;;;;;;3.57;2.70;;;;;;;;;;4966645;28;20223;-52
2021/05/26 04:28:42;;;;;;;4.70;1.90;;;;;;;;;;4968345;28;20193;-54
2021/05/26 04:31:13;;;;;;;9.23;2.83;;;;;;;;;;4966350;28;20192;-52
2021/05/26 04:33:39;;;;;;;3.47;2.10;;;;;;;;;;4965769;28;20236;-53
2021/05/26 04:36:05;;;;;;;5.00;2.10;;;;;;;;;;4968627;28;20582;-55
2021/05/26 04:38:30;;;;;;;6.70;2.50;;;;;;;;;;4970233;28;20196;-55
2021/05/26 04:40:56;;;;;;;5.47;1.87;;;;;;;;;;4982576;28;20581;-56
2021/05/26 04:43:21;;;;;;;2.27;1.87;;;;;;;;;;4968277;28;20727;-53
2021/05/26 04:45:51;;;;;;;8.10;2.00;;;;;;;;;;4979631;28;20262;-53
2021/05/26 04:48:17;;;;;;;6.13;2.30;;;;;;;;;;4964476;28;20195;-53
2021/05/26 04:50:42;;;;;;;3.33;1.60;;;;;;;;;;4964604;28;20280;-54
2021/05/26 04:53:07;;;;;;;3.13;2.50;;;;;;;;;;4961357;28;20251;-52
2021/05/26 04:55:33;;;;;;;2.73;2.30;;;;;;;;;;4966569;28;20348;-53
2021/05/26 04:58:06;;;;;;;4.63;2.40;;;;;;;;;;4967706;28;20238;-55
2021/05/26 05:00:33;;;;;;;7.47;2.67;;;;;;;;;;4967311;28;20558;-53
2021/05/26 05:02:59;;;;;;;5.97;3.13;;;;;;;;;;4961263;28;20196;-55
2021/05/26 05:05:29;;;;;;;8.17;2.57;;;;;;;;;;4962058;28;20196;-55
2021/05/26 05:08:01;;;;;;;3.23;2.23;;;;;;;;;;4974884;28;20189;-53
2021/05/26 05:10:26;;;;;;;3.60;2.10;;;;;;;;;;4970009;28;20184;-54
2021/05/26 05:12:51;;;;;;;4.03;2.40;;;;;;;;;;4964342;28;20192;-53
2021/05/26 05:15:17;;;;;;;5.80;2.80;;;;;;;;;;4964762;28;20360;-55
2021/05/26 05:17:48;;;;;;;3.17;2.00;;;;;;;;;;4961864;28;20216;-54
2021/05/26 05:20:15;;;;;;;2.10;1.53;;;;;;;;;;4969418;28;20196;-54
2021/05/26 05:22:41;;;;;;;2.37;1.60;;;;;;;;;;4964565;28;20196;-54
2021/05/26 05:25:08;;;;;;;5.93;2.23;;;;;;;;;;4980071;28;20188;-55
2021/05/26 05:27:36;;;;;;;2.53;2.30;;;;;;;;;;4964371;28;20317;-54
2021/05/26 05:30:04;;;;;;;5.93;3.27;;;;;;;;;;4963549;28;20212;-53
2021/05/26 05:32:30;;;;;;;2.20;1.40;;;;;;;;;;4965793;28;20699;-54
2021/05/26 05:34:55;;;;;;;3.23;1.67;;;;;;;;;;4963545;28;20221;-55
2021/05/26 05:37:23;;;;;;;1.30;1.20;;;;;;;;;;4965858;28;20208;-54
2021/05/26 05:39:49;;;;;;;2.20;1.20;;;;;;;;;;4959324;28;20272;-55
2021/05/26 05:42:14;;;;;;;4.63;2.00;;;;;;;;;;4969709;28;20280;-52
2021/05/26 05:44:40;;;;;;;1.77;1.50;;;;;;;;;;4963197;28;20211;-53
2021/05/26 05:47:05;;;;;;;2.13;1.70;;;;;;;;;;4967815;28;20232;-53
2021/05/26 05:49:30;;;;;;;4.03;2.03;;;;;;;;;;4967525;28;20724;-54
2021/05/26 05:51:55;;;;;;;5.83;2.13;;;;;;;;;;4965359;28;20189;-54
2021/05/26 05:54:21;;;;;;;5.07;1.70;;;;;;;;;;4964184;28;20216;-54
2021/05/26 05:56:48;;;;;;;2.73;1.57;;;;;;;;;;4967930;28;20216;-54
2021/05/26 05:59:13;;;;;;;4.33;2.10;;;;;;;;;;4957211;28;20199;-52
2021/05/26 06:01:39;;;;;;;4.73;2.13;;;;;;;;;;4965315;28;20201;-54
2021/05/26 06:04:04;;;;;;;3.63;1.70;;;;;;;;;;4960168;28;20571;-52
2021/05/26 06:06:29;;;;;;;3.87;1.80;;;;;;;;;;4963638;28;20296;-55
2021/05/26 06:08:55;;;;;;;4.20;1.80;;;;;;;;;;4958522;28;20193;-55
2021/05/26 06:11:20;;;;;;;5.23;2.07;;;;;;;;;;4961329;28;20197;-55
2021/05/26 06:13:48;;;;;;;3.77;1.67;;;;;;;;;;4974118;28;20582;-53
2021/05/26 06:16:16;;;;;;;3.50;1.50;;;;;;;;;;4954585;28;20208;-55
2021/05/26 06:18:42;;;;;;;4.67;1.90;;;;;;;;;;4956753;28;20846;-54
2021/05/26 06:21:09;;;;;;;3.43;1.57;;;;;;;;;;4967726;28;20239;-53
2021/05/26 06:23:35;;;;;;;4.43;1.70;;;;;;;;;;4959201;28;20191;-53
2021/05/26 06:26:01;;;;;;;3.20;1.70;;;;;;;;;;4960049;28;20208;-53
2021/05/26 06:28:27;;;;;;;2.33;1.70;;;;;;;;;;4956805;28;20228;-55
2021/05/26 06:30:52;;;;;;;3.77;1.70;;;;;;;;;;4956330;28;20196;-55
2021/05/26 06:33:18;;;;;;;3.20;1.90;;;;;;;;;;4952550;28;20197;-52
2021/05/26 06:35:43;;;;;;;3.30;1.50;;;;;;;;;;4960261;28;20206;-54
2021/05/26 06:38:08;;;;;;;5.47;2.30;;;;;;;;;;4960086;28;20653;-54
2021/05/26 06:40:36;;;;;;;2.73;1.80;;;;;;;;;;4966413;28;20192;-54
2021/05/26 06:43:01;;;;;;;6.13;1.90;;;;;;;;;;4967333;28;20196;-54
2021/05/26 06:45:29;;;;;;;7.70;1.70;;;;;;;;;;4964365;28;20184;-54
2021/05/26 06:47:56;;;;;;;3.67;1.50;;;;;;;;;;4966007;28;20650;-53
2021/05/26 06:50:22;;;;;;;4.30;1.87;;;;;;;;;;4967093;28;20193;-52
2021/05/26 06:52:49;;;;;;;3.17;1.53;;;;;;;;;;4965296;28;20189;-53
2021/05/26 06:55:17;;;;;;;5.57;2.10;;;;;;;;;;4965833;28;20276;-51
2021/05/26 06:57:46;;;;;;;3.53;1.93;;;;;;;;;;4977617;28;20209;-51
2021/05/26 07:00:12;;;;;;;4.77;1.70;;;;;;;;;;4965341;28;20187;-52
2021/05/26 07:02:37;;;;;;;3.50;1.90;;;;;;;;;;4968048;28;20191;-53
2021/05/26 07:05:03;;;;;;;4.43;2.20;;;;;;;;;;4979598;28;20562;-55
2021/05/26 07:07:28;;;;;;;3.50;1.67;;;;;;;;;;4967567;28;20216;-55
2021/05/26 07:09:54;;;;;;;2.33;1.33;;;;;;;;;;4967679;28;20181;-55
2021/05/26 07:12:19;;;;;;;5.50;1.60;;;;;;;;;;4972343;28;20692;-54
2021/05/26 07:14:46;;;;;;;2.47;1.60;;;;;;;;;;4971178;28;20205;-52
2021/05/26 07:17:11;;;;;;;5.63;2.20;;;;;;;;;;4971209;28;20263;-53
2021/05/26 07:19:36;;;;;;;2.87;1.50;;;;;;;;;;4969780;28;20185;-55
2021/05/26 07:22:03;;;;;;;2.47;1.40;;;;;;;;;;4971492;28;20249;-55
2021/05/26 07:24:29;;;;;;;3.83;1.30;;;;;;;;;;4981585;28;20188;-53
2021/05/26 07:26:54;;;;;;;3.40;1.70;;;;;;;;;;4967250;28;20212;-53
2021/05/26 07:29:21;;;;;;;2.47;1.38;;;;;;;;;;4967725;28;20193;-54
2021/05/26 07:31:47;;;;;;;5.80;1.63;;;;;;;;;;4969934;28;20239;-55
2021/05/26 07:34:12;;;;;;;5.63;1.73;;;;;;;;;;4969243;28;20201;-53
2021/05/26 07:36:40;;;;;;;5.82;1.75;;;;;;;;;;4970786;28;20310;-54
2021/05/26 07:39:08;;;;;;;2.53;1.50;;;;;;;;;;4970755;28;20189;-51
2021/05/26 07:41:33;;;;;;;4.13;1.60;;;;;;;;;;4976089;28;20244;-51
2021/05/26 07:44:01;;;;;;;6.28;2.20;;;;;;;;;;4961208;28;20842;-55
2021/05/26 07:46:26;;;;;;;4.00;1.98;;;;;;;;;;4979513;28;20300;-54
2021/05/26 07:48:52;;;;;;;1.88;1.42;;;;;;;;;;4981539;28;20275;-53
2021/05/26 07:51:26;;;;;;;3.80;1.30;;;;;;;;;;4970132;28;20279;-53
2021/05/26 07:53:52;;;;;;;6.43;2.17;;;;;;;;;;4978601;28;20402;-54
2021/05/26 07:56:17;;;;;;;5.30;1.77;;;;;;;;;;4965951;28;20296;-52
2021/05/26 07:58:42;;;;;;;5.10;1.93;;;;;;;;;;4965316;28;20233;-53
2021/05/26 08:01:10;;;;;;;5.73;2.00;;;;;;;;;;4970230;28;20235;-54
2021/05/26 08:03:35;;;;;;;6.40;1.57;;;;;;;;;;4967910;28;20252;-53
2021/05/26 08:06:00;;;;;;;2.63;1.30;;;;;;;;;;4966207;28;20775;-54
2021/05/26 08:08:30;;;;;;;3.87;1.90;;;;;;;;;;4968341;28;20189;-53
2021/05/26 08:10:55;;;;;;;3.58;1.52;;;;;;;;;;4968175;28;20180;-52
2021/05/26 08:13:20;;;;;;;3.33;1.70;;;;;;;;;;4980994;28;20189;-54
2021/05/26 08:15:46;;;;;;;4.53;1.05;;;;;;;;;;4979804;28;20604;-51
2021/05/26 08:18:12;;;;;;;2.03;1.38;;;;;;;;;;4968374;28;20247;-50
2021/05/26 08:20:41;;;;;;;3.75;1.35;;;;;;;;;;4961376;28;20280;-53
2021/05/26 08:23:06;;;;;;;2.55;1.63;;;;;;;;;;4961996;28;20200;-55
2021/05/26 08:25:32;;;;;;;2.63;1.75;;;;;;;;;;4963262;28;20181;-51
2021/05/26 08:27:57;;;;;;;2.83;1.70;;;;;;;;;;4962279;28;20205;-52
2021/05/26 08:30:23;;;;;;;4.97;1.87;;;;;;;;;;4961402;28;20244;-53
2021/05/26 08:32:48;;;;;;;2.60;1.58;;;;;;;;;;4959402;28;20200;-53
2021/05/26 08:35:14;;;;;;;4.43;1.30;;;;;;;;;;4955641;28;20863;-54
2021/05/26 08:37:41;;;;;;;3.13;1.45;;;;;;;;;;4959151;28;20227;-53
2021/05/26 08:40:07;;;;;;;6.20;1.70;;;;;;;;;;4953217;28;20190;-54
2021/05/26 08:42:33;;;;;;;3.45;1.80;;;;;;;;;;4956168;28;20458;-53
2021/05/26 08:44:58;;;;;;;3.72;1.63;;;;;;;;;;4962849;28;20196;-55
2021/05/26 08:47:26;;;;;;;3.63;1.88;;;;;;;;;;4964320;28;20255;-54
2021/05/26 08:49:51;;;;;;;2.70;1.40;;;;;;;;;;4958920;28;20642;-56
2021/05/26 08:52:18;;;;;;;7.82;1.48;;;;;;;;;;4958527;28;20204;-54
2021/05/26 08:54:46;;;;;;;4.57;1.73;;;;;;;;;;4978408;28;20909;-55
2021/05/26 08:57:11;;;;;;;2.97;1.60;;;;;;;;;;4972001;28;20219;-55
2021/05/26 08:59:39;;;;;;;2.70;1.50;;;;;;;;;;4968325;28;20192;-54
2021/05/26 09:02:08;;;;;;;3.10;1.58;;;;;;;;;;4969767;28;20255;-54
2021/05/26 09:04:34;;;;;;;4.05;1.60;;;;;;;;;;4957657;28;20565;-55
2021/05/26 09:07:07;;;;;;;1.90;1.30;;;;;;;;;;4957529;28;20670;-54
2021/05/26 09:09:48;;;;;;;2.08;1.30;;;;;;;;;;4953825;28;20188;-56
2021/05/26 09:12:22;;;;;;;2.03;1.40;;;;;;;;;;4960978;28;20577;-54
2021/05/26 09:14:47;;;;;;;2.25;1.23;;;;;;;;;;4966120;28;20204;-53
2021/05/26 09:17:12;;;;;;;2.17;1.33;;;;;;;;;;4963511;28;20235;-54
2021/05/26 09:19:38;;;;;;;2.93;1.20;;;;;;;;;;4966258;28;20196;-54
2021/05/26 09:22:14;;;;;;;4.53;1.50;;;;;;;;;;4956015;28;20199;-55
2021/05/26 09:24:41;;;;;;;5.47;1.63;;;;;;;;;;4960062;28;20322;-53
2021/05/26 09:27:11;;;;;;;2.40;1.50;;;;;;;;;;4957740;28;20270;-53
2021/05/26 09:29:47;;;;;;;2.03;1.60;;;;;;;;;;4960200;28;20576;-53
2021/05/26 09:32:24;;;;;;;3.43;1.30;;;;;;;;;;4956305;28;20181;-54
2021/05/26 09:34:54;;;;;;;3.80;1.33;;;;;;;;;;4961384;28;20919;-52
2021/05/26 09:37:21;;;;;;;4.50;1.50;;;;;;;;;;4967194;28;20205;-52
2021/05/26 09:39:48;;;;;;;1.83;1.30;;;;;;;;;;4966069;28;20733;-53
2021/05/26 09:42:35;;;;;;;2.35;1.25;;;;;;;;;;4963148;28;20188;-55
2021/05/26 09:45:14;;;;;;;1.88;1.08;;;;;;;;;;4966304;28;20185;-55
2021/05/26 09:47:53;;;;;;;3.47;1.40;;;;;;;;;;4962502;28;20254;-53
2021/05/26 09:50:30;;;;;;;0.85;0.77;;;;;;;;;;4961234;28;20279;-53
2021/05/26 09:53:12;;;;;;;2.45;1.30;;;;;;;;;;4961562;28;20184;-54
2021/05/26 09:55:42;;;;;;;2.45;1.17;;;;;;;;;;4964379;28;20639;-51
2021/05/26 09:58:10;;;;;;;2.25;1.23;;;;;;;;;;4965352;28;20288;-51
2021/05/26 10:00:37;;;;;;;1.65;1.30;;;;;;;;;;4964972;28;20478;-53
2021/05/26 10:03:03;;;;;;;2.67;1.33;;;;;;;;;;4963656;28;20720;-54
2021/05/26 10:05:30;;;;;;;1.77;1.15;;;;;;;;;;4964850;28;20204;-52
2021/05/26 10:07:57;;;;;;;3.17;1.30;;;;;;;;;;4962817;28;20689;-52
2021/05/26 10:10:28;;;;;;;2.13;1.20;;;;;;;;;;4961615;28;20220;-53
2021/05/26 10:12:57;;;;;;;1.88;1.10;;;;;;;;;;4963835;28;20184;-53
2021/05/26 10:15:24;;;;;;;3.58;1.13;;;;;;;;;;4957347;28;20200;-53
2021/05/26 10:17:54;;;;;;;1.58;0.85;;;;;;;;;;4964133;28;20235;-53
2021/05/26 10:20:26;;;;;;;1.92;0.98;;;;;;;;;;4964170;28;20211;-52
2021/05/26 10:22:53;;;;;;;2.53;1.23;;;;;;;;;;4964953;28;20196;-52
2021/05/26 10:25:20;;;;;;;1.42;0.82;;;;;;;;;;4965346;28;20200;-53
2021/05/26 10:27:51;;;;;;;1.73;0.80;;;;;;;;;;4953705;28;22469;-52
2021/05/26 10:30:18;;;;;;;2.10;1.20;;;;;;;;;;4969501;28;20204;-54
2021/05/26 10:32:50;;;;;;;0.70;0.70;;;;;;;;;;4967353;28;20585;-53
2021/05/26 10:35:17;;;;;;;2.83;1.10;;;;;;;;;;4970179;28;20212;-52
2021/05/26 10:37:46;;;;;;;1.85;0.85;;;;;;;;;;4967876;28;20702;-51
2021/05/26 10:40:30;;;;;;;3.03;0.77;;;;;;;;;;4963511;28;20220;-53
2021/05/26 10:43:18;;;;;;;2.85;1.20;;;;;;;;;;4966738;28;20192;-54
2021/05/26 10:45:45;;;;;;;2.25;1.02;;;;;;;;;;4958159;28;20227;-53
2021/05/26 10:48:11;;;;;;;1.20;0.80;;;;;;;;;;4960841;28;20350;-52
2021/05/26 10:50:53;;;;;;;2.17;0.88;;;;;;;;;;4959038;28;20707;-53
2021/05/26 10:53:18;;;;;;;0.77;0.77;;;;;;;;;;4961910;28;20300;-52
2021/05/26 10:55:51;;;;;;;1.30;0.90;;;;;;;;;;4954713;28;20296;-52
2021/05/26 10:58:48;;;;;;;0.77;0.77;;;;;;;;;;4959496;28;20185;-54
2021/05/26 11:01:13;;;;;;;0.60;0.60;;;;;;;;;;4951560;28;20201;-51
2021/05/26 11:03:43;;;;;;;1.17;0.60;;;;;;;;;;4955624;28;20185;-49
2021/05/26 11:06:13;;;;;;;0.60;0.60;;;;;;;;;;4957425;28;20360;-52
2021/05/26 11:08:42;;;;;;;0.60;0.60;;;;;;;;;;4957336;28;20194;-51
2021/05/26 11:11:34;;;;;;;0.60;0.60;;;;;;;;;;4971115;28;20275;-52
2021/05/26 11:14:13;;;;;;;1.27;0.80;;;;;;;;;;4960592;28;20209;-53
2021/05/26 11:16:51;;;;;;;3.17;0.77;;;;;;;;;;4962479;28;20270;-54
2021/05/26 11:19:25;;;;;;;0.50;0.50;;;;;;;;;;4964112;28;20287;-53
2021/05/26 11:21:58;;;;;;;1.17;1.00;;;;;;;;;;4964536;28;20194;-54
2021/05/26 11:24:25;;;;;;;3.93;1.23;;;;;;;;;;4956188;28;20804;-55
2021/05/26 11:26:51;;;;;;;1.10;0.90;;;;;;;;;;4956771;28;20223;-52
2021/05/26 11:29:27;;;;;;;1.23;0.80;;;;;;;;;;4964682;28;20196;-53
2021/05/26 11:32:11;;;;;;;2.87;0.87;;;;;;;;;;4959862;28;20199;-54
2021/05/26 11:34:42;;;;;;;1.43;1.00;;;;;;;;;;4959998;28;20212;-55
2021/05/26 11:37:11;;;;;;;1.13;0.90;;;;;;;;;;4962276;28;20291;-51
2021/05/26 11:39:37;;;;;;;1.00;0.80;;;;;;;;;;4958563;28;20276;-54
2021/05/26 11:42:15;;;;;;;0.50;0.50;;;;;;;;;;4961495;28;20195;-53
2021/05/26 11:44:44;;;;;;;1.27;0.60;;;;;;;;;;4964247;28;20252;-54
2021/05/26 11:47:12;;;;;;;1.03;0.63;;;;;;;;;;4961817;28;20598;-53
2021/05/26 11:49:40;;;;;;;0.83;0.60;;;;;;;;;;4963943;28;20619;-53
2021/05/26 11:52:08;;;;;;;1.70;0.73;;;;;;;;;;4965789;28;20192;-51
2021/05/26 11:54:50;;;;;;;0.77;0.77;;;;;;;;;;4966721;28;20680;-54
2021/05/26 11:57:19;;;;;;;1.80;0.70;;;;;;;;;;4965664;28;20706;-51
2021/05/26 11:59:53;;;;;;;3.07;0.80;;;;;;;;;;4969029;28;20247;-53
2021/05/26 12:02:18;;;;;;;0.60;0.60;;;;;;;;;;4967161;28;20205;-51
2021/05/26 12:04:44;;;;;;;1.83;0.80;;;;;;;;;;4965211;28;20197;-52
2021/05/26 12:07:10;;;;;;;2.93;0.87;;;;;;;;;;4966890;28;20619;-52
2021/05/26 12:09:38;;;;;;;1.63;0.80;;;;;;;;;;4964106;28;20207;-51
2021/05/26 12:12:17;;;;;;;0.87;0.60;;;;;;;;;;4966289;28;20208;-56
2021/05/26 12:14:43;;;;;;;1.47;0.60;;;;;;;;;;4959776;28;20205;-54
2021/05/26 12:17:10;;;;;;;3.13;1.10;;;;;;;;;;4962395;28;20275;-54
2021/05/26 12:19:35;;;;;;;1.37;0.80;;;;;;;;;;4960394;28;20192;-54
2021/05/26 12:22:17;;;;;;;1.37;0.80;;;;;;;;;;4962937;28;20204;-54
2021/05/26 12:24:54;;;;;;;1.77;0.87;;;;;;;;;;4959671;28;20224;-51
2021/05/26 12:27:43;;;;;;;2.00;1.00;;;;;;;;;;4962165;28;20441;-54
2021/05/26 12:30:30;;;;;;;1.90;0.80;;;;;;;;;;4969242;28;20188;-53
2021/05/26 12:33:11;;;;;;;1.17;0.77;;;;;;;;;;4973902;28;20188;-51
2021/05/26 12:35:37;;;;;;;1.47;0.80;;;;;;;;;;4956297;28;21590;-52
2021/05/26 12:38:18;;;;;;;1.73;0.80;;;;;;;;;;4966360;28;20192;-53
2021/05/26 12:40:43;;;;;;;0.80;0.80;;;;;;;;;;4963851;28;20189;-53
2021/05/26 12:43:22;;;;;;;1.20;0.77;;;;;;;;;;4970035;28;20648;-54
2021/05/26 12:45:47;;;;;;;2.10;0.70;;;;;;;;;;4966785;28;20200;-52
2021/05/26 12:48:14;;;;;;;1.80;0.90;;;;;;;;;;4964945;28;20195;-51
2021/05/26 12:50:44;;;;;;;0.90;0.70;;;;;;;;;;4965531;28;20216;-51
2021/05/26 12:53:13;;;;;;;0.80;0.70;;;;;;;;;;4967593;28;20719;-51
2021/05/26 12:55:41;;;;;;;1.00;0.73;;;;;;;;;;4967892;28;20301;-53
2021/05/26 12:58:09;;;;;;;1.47;0.80;;;;;;;;;;4971930;28;20199;-54
2021/05/26 13:00:38;;;;;;;0.60;0.60;;;;;;;;;;4982640;28;20673;-51
2021/05/26 13:03:19;;;;;;;1.40;0.57;;;;;;;;;;4983213;28;20189;-53
2021/05/26 13:05:50;;;;;;;0.70;0.70;;;;;;;;;;4964494;28;20716;-52
2021/05/26 13:08:21;;;;;;;3.40;0.87;;;;;;;;;;4962837;28;20232;-51
2021/05/26 13:10:49;;;;;;;1.10;0.80;;;;;;;;;;4965384;28;20209;-53
2021/05/26 13:13:21;;;;;;;0.70;0.70;;;;;;;;;;4969375;28;20200;-54
2021/05/26 13:15:49;;;;;;;1.20;0.70;;;;;;;;;;4968767;28;20595;-51
2021/05/26 13:18:15;;;;;;;0.93;0.60;;;;;;;;;;4966827;28;20198;-53
2021/05/26 13:20:43;;;;;;;1.03;0.67;;;;;;;;;;4967914;28;20657;-53
2021/05/26 13:23:09;;;;;;;0.93;0.70;;;;;;;;;;4969885;28;20842;-54
2021/05/26 13:25:36;;;;;;;0.63;0.57;;;;;;;;;;4962546;28;20190;-53
2021/05/26 13:28:07;;;;;;;1.33;0.80;;;;;;;;;;4967950;28;20223;-54
2021/05/26 13:30:33;;;;;;;3.13;0.70;;;;;;;;;;4968257;28;20534;-53
2021/05/26 13:32:59;;;;;;;1.83;0.80;;;;;;;;;;4969374;28;20280;-52
2021/05/26 13:35:25;;;;;;;0.80;0.80;;;;;;;;;;4969193;28;20217;-52
2021/05/26 13:37:53;;;;;;;0.60;0.60;;;;;;;;;;4968210;28;20197;-55
2021/05/26 13:40:19;;;;;;;0.87;0.60;;;;;;;;;;4968350;28;20196;-52
2021/05/26 13:42:47;;;;;;;1.67;0.60;;;;;;;;;;4980095;28;20681;-51
2021/05/26 13:45:16;;;;;;;4.47;0.63;;;;;;;;;;4951594;28;20192;-52
2021/05/26 13:47:42;;;;;;;2.10;0.70;;;;;;;;;;4966802;28;20208;-52
2021/05/26 13:50:15;;;;;;;1.03;0.80;;;;;;;;;;4967704;28;20275;-53
2021/05/26 13:53:02;;;;;;;0.90;0.77;;;;;;;;;;4977062;28;20723;-52
2021/05/26 13:55:29;;;;;;;0.50;0.50;;;;;;;;;;4963064;28;20209;-56
2021/05/26 13:57:59;;;;;;;0.90;0.80;;;;;;;;;;4967415;28;20220;-52
2021/05/26 14:00:30;;;;;;;0.90;0.63;;;;;;;;;;4980059;28;20776;-55
2021/05/26 14:02:55;;;;;;;4.20;0.60;;;;;;;;;;4963888;28;20199;-54
2021/05/26 14:05:24;;;;;;;1.37;0.60;;;;;;;;;;4964305;28;20276;-54
2021/05/26 14:07:50;;;;;;;1.57;0.70;;;;;;;;;;4963037;28;20220;-55
2021/05/26 14:10:18;;;;;;;0.60;0.60;;;;;;;;;;4966006;28;20192;-54
2021/05/26 14:12:46;;;;;;;0.63;0.57;;;;;;;;;;4957786;28;20672;-54
2021/05/26 14:15:11;;;;;;;0.80;0.60;;;;;;;;;;4967396;28;20212;-54
2021/05/26 14:17:39;;;;;;;1.83;0.60;;;;;;;;;;4963213;28;20220;-54
2021/05/26 14:20:07;;;;;;;1.10;0.70;;;;;;;;;;4965501;28;20211;-54
2021/05/26 14:22:32;;;;;;;0.50;0.50;;;;;;;;;;4965717;28;20199;-55
2021/05/26 14:24:58;;;;;;;0.50;0.50;;;;;;;;;;4964916;28;20193;-53
2021/05/26 14:27:24;;;;;;;0.60;0.57;;;;;;;;;;4958116;28;20221;-53
2021/05/26 14:29:49;;;;;;;1.17;0.67;;;;;;;;;;4964199;28;20200;-54
2021/05/26 14:32:17;;;;;;;1.07;0.50;;;;;;;;;;4965363;28;20201;-55
2021/05/26 14:34:44;;;;;;;0.60;0.60;;;;;;;;;;4967404;28;20684;-54
2021/05/26 14:37:11;;;;;;;0.60;0.60;;;;;;;;;;4963562;28;20701;-55
2021/05/26 14:39:40;;;;;;;0.60;0.53;;;;;;;;;;4965900;28;20821;-52
2021/05/26 14:42:05;;;;;;;1.37;0.77;;;;;;;;;;4965909;28;20713;-54
2021/05/26 14:44:31;;;;;;;0.80;0.60;;;;;;;;;;4966547;28;20188;-55
2021/05/26 14:46:56;;;;;;;0.50;0.50;;;;;;;;;;4962123;28;20240;-55
2021/05/26 14:49:22;;;;;;;3.03;0.57;;;;;;;;;;4963918;28;20252;-51